Time;durP1;ratioP1;P1;durP2;ratioP2;P2;SDS_P1;SDS_P2;PMS_P1;PMS_P2;Temp;Humidity;BMP_temperature;BMP_pressure;BME280_temperature;BME280_humidity;BME280_pressure;Samples;Min_cycle;Max_cycle;Signal;HPM_P1;HPM_P2
2022/08/30 00:03:22;;;;;;;3.03;1.40;;;13.80;99.90;;;;;;4992996;28;20048;-74
2022/08/30 00:05:48;;;;;;;4.90;1.58;;;13.80;99.90;;;;;;4992782;28;20471;-73
2022/08/30 00:08:14;;;;;;;5.13;1.60;;;13.90;99.90;;;;;;4976487;28;20042;-73
2022/08/30 00:10:40;;;;;;;4.63;1.17;;;13.80;99.90;;;;;;4992168;28;20117;-74
2022/08/30 00:13:07;;;;;;;2.42;1.33;;;13.80;99.90;;;;;;5011885;23;20050;-73
2022/08/30 00:15:33;;;;;;;3.72;1.58;;;13.80;99.90;;;;;;5030274;28;20110;-74
2022/08/30 00:17:59;;;;;;;2.85;1.17;;;13.80;99.90;;;;;;5031753;28;20083;-74
2022/08/30 00:20:28;;;;;;;4.75;1.65;;;13.70;99.90;;;;;;5031979;28;20421;-74
2022/08/30 00:22:54;;;;;;;2.42;1.30;;;13.70;99.90;;;;;;5032062;28;20025;-74
2022/08/30 00:25:21;;;;;;;3.47;1.20;;;13.70;99.90;;;;;;5032056;28;20028;-74
2022/08/30 00:27:47;;;;;;;5.60;2.47;;;13.70;99.90;;;;;;5032199;28;20018;-74
2022/08/30 00:30:15;;;;;;;7.25;1.30;;;13.60;99.90;;;;;;5031931;28;20024;-73
2022/08/30 00:32:40;;;;;;;4.70;1.20;;;13.60;99.90;;;;;;5031936;28;20453;-74
2022/08/30 00:35:09;;;;;;;3.55;1.33;;;13.60;99.90;;;;;;5031568;28;20021;-74
2022/08/30 00:37:35;;;;;;;3.63;1.90;;;13.60;99.90;;;;;;5031613;28;20022;-74
2022/08/30 00:40:03;;;;;;;4.07;1.40;;;13.60;99.90;;;;;;5031501;28;20493;-74
2022/08/30 00:42:29;;;;;;;1.88;1.33;;;13.60;99.90;;;;;;5032119;28;20021;-74
2022/08/30 00:44:55;;;;;;;2.25;1.10;;;13.60;99.90;;;;;;5031618;28;20022;-74
2022/08/30 00:47:21;;;;;;;3.83;1.20;;;13.60;99.90;;;;;;5032134;28;20056;-74
2022/08/30 00:49:50;;;;;;;1.63;1.15;;;13.60;99.90;;;;;;5031712;28;20029;-74
2022/08/30 00:52:17;;;;;;;4.43;1.58;;;13.60;99.90;;;;;;5030221;28;20075;-74
2022/08/30 00:54:45;;;;;;;2.08;1.40;;;13.60;99.90;;;;;;5031298;28;20049;-74
2022/08/30 00:57:13;;;;;;;3.63;1.40;;;13.60;99.90;;;;;;5031518;28;20079;-74
2022/08/30 00:59:41;;;;;;;2.05;1.08;;;13.60;99.90;;;;;;5031402;28;20033;-74
2022/08/30 01:02:08;;;;;;;7.07;1.55;;;13.60;99.90;;;;;;5031473;28;20378;-74
2022/08/30 01:04:36;;;;;;;1.23;1.13;;;13.60;99.90;;;;;;5031445;28;20017;-74
2022/08/30 01:07:02;;;;;;;4.03;1.52;;;13.60;99.90;;;;;;5031556;28;20096;-74
2022/08/30 01:09:28;;;;;;;2.70;1.35;;;13.50;99.90;;;;;;5030494;28;20025;-74
2022/08/30 01:11:55;;;;;;;1.42;1.13;;;13.50;99.90;;;;;;5031538;28;20463;-74
2022/08/30 01:14:21;;;;;;;4.32;1.20;;;13.50;99.90;;;;;;5031740;28;20033;-74
2022/08/30 01:16:49;;;;;;;5.05;1.20;;;13.50;99.90;;;;;;5031115;28;20474;-74
2022/08/30 01:19:24;;;;;;;3.42;1.20;;;13.50;99.90;;;;;;5031421;28;20052;-74
2022/08/30 01:21:59;;;;;;;3.58;1.40;;;13.50;99.90;;;;;;5031529;28;20053;-74
2022/08/30 01:24:24;;;;;;;1.50;1.08;;;13.60;99.90;;;;;;5030910;28;20136;-74
2022/08/30 01:26:50;;;;;;;1.92;1.00;;;13.60;99.90;;;;;;5031136;28;20021;-74
2022/08/30 01:29:20;;;;;;;4.53;1.48;;;13.60;99.90;;;;;;5031415;28;20036;-74
2022/08/30 01:31:45;;;;;;;4.45;1.63;;;13.60;99.90;;;;;;5031309;28;20025;-74
2022/08/30 01:34:11;;;;;;;3.53;1.48;;;13.60;99.90;;;;;;5031259;28;20021;-74
2022/08/30 01:36:41;;;;;;;6.60;1.48;;;13.60;99.90;;;;;;5030667;28;20466;-74
2022/08/30 01:39:08;;;;;;;4.93;1.67;;;13.60;99.90;;;;;;5030631;28;20068;-74
2022/08/30 01:41:35;;;;;;;4.45;1.42;;;13.60;99.90;;;;;;5031136;28;20030;-74
2022/08/30 01:44:07;;;;;;;2.08;1.40;;;13.60;99.90;;;;;;5031061;28;20029;-74
2022/08/30 01:46:38;;;;;;;9.65;1.35;;;13.60;99.90;;;;;;5031102;28;20044;-74
2022/08/30 01:49:07;;;;;;;4.50;1.50;;;13.60;99.90;;;;;;5031023;28;20112;-74
2022/08/30 01:51:33;;;;;;;4.35;1.52;;;13.60;99.90;;;;;;5033579;28;20021;-74
2022/08/30 01:53:59;;;;;;;3.22;1.35;;;13.60;99.90;;;;;;5049885;28;20033;-74
2022/08/30 01:56:27;;;;;;;3.60;1.35;;;13.60;99.90;;;;;;5035016;28;20025;-74
2022/08/30 01:58:54;;;;;;;4.10;1.60;;;13.60;99.90;;;;;;5034763;28;20030;-74
2022/08/30 02:01:24;;;;;;;4.00;1.33;;;13.70;99.90;;;;;;5034795;28;20026;-74
2022/08/30 02:03:53;;;;;;;2.72;1.30;;;13.70;99.90;;;;;;5034683;28;20052;-74
2022/08/30 02:06:19;;;;;;;2.97;1.20;;;13.70;99.90;;;;;;5035060;28;20030;-74
2022/08/30 02:08:46;;;;;;;4.53;1.60;;;13.80;99.90;;;;;;5033732;28;20482;-74
2022/08/30 02:11:12;;;;;;;3.35;1.48;;;13.80;99.90;;;;;;5033941;28;20033;-74
2022/08/30 02:13:40;;;;;;;3.47;1.35;;;13.80;99.90;;;;;;5053142;23;20057;-73
2022/08/30 02:16:08;;;;;;;3.08;1.40;;;13.80;99.90;;;;;;5030181;28;20111;-73
2022/08/30 02:18:35;;;;;;;2.30;1.20;;;13.80;99.90;;;;;;5014815;28;20021;-73
2022/08/30 02:21:02;;;;;;;6.57;1.40;;;13.70;99.90;;;;;;5014381;28;20383;-73
2022/08/30 02:23:27;;;;;;;6.00;1.67;;;13.70;99.90;;;;;;5014717;28;20098;-73
2022/08/30 02:25:54;;;;;;;6.22;1.23;;;13.70;99.90;;;;;;5014705;28;20483;-73
2022/08/30 02:28:20;;;;;;;2.63;1.33;;;13.70;99.90;;;;;;5014861;28;20068;-73
2022/08/30 02:30:47;;;;;;;2.05;1.10;;;13.70;99.90;;;;;;5013985;28;20600;-74
2022/08/30 02:33:13;;;;;;;3.67;1.30;;;13.70;99.90;;;;;;5014557;28;20455;-74
2022/08/30 02:35:39;;;;;;;3.25;1.48;;;13.60;99.90;;;;;;5014781;28;20036;-73
2022/08/30 02:38:05;;;;;;;7.30;1.63;;;13.50;99.90;;;;;;5014534;28;20104;-74
2022/08/30 02:40:31;;;;;;;4.40;1.70;;;13.50;99.90;;;;;;5013706;28;20041;-74
2022/08/30 02:42:57;;;;;;;1.88;1.38;;;13.50;99.90;;;;;;5012712;28;20486;-74
2022/08/30 02:45:23;;;;;;;4.78;1.40;;;13.50;99.90;;;;;;5032611;28;20535;-74
2022/08/30 02:47:49;;;;;;;5.22;1.35;;;13.50;99.90;;;;;;5034129;28;20055;-73
2022/08/30 02:50:15;;;;;;;3.30;1.40;;;13.60;99.90;;;;;;5034025;28;20449;-74
2022/08/30 02:52:41;;;;;;;3.75;1.45;;;13.60;99.90;;;;;;5033688;28;20060;-73
2022/08/30 02:55:07;;;;;;;6.60;1.83;;;13.60;99.90;;;;;;5034199;28;20023;-73
2022/08/30 02:57:33;;;;;;;6.03;1.80;;;13.60;99.90;;;;;;5032926;28;20033;-73
2022/08/30 03:00:00;;;;;;;4.20;1.40;;;13.70;99.90;;;;;;5033846;28;20037;-73
2022/08/30 03:02:26;;;;;;;3.47;1.30;;;13.60;99.90;;;;;;5033554;28;20124;-74
2022/08/30 03:04:52;;;;;;;4.13;1.73;;;13.60;99.90;;;;;;5033516;28;20033;-74
2022/08/30 03:07:18;;;;;;;5.50;1.45;;;13.70;99.90;;;;;;5033305;28;20048;-73
2022/08/30 03:09:44;;;;;;;2.28;1.40;;;13.60;99.90;;;;;;5032549;28;20025;-73
2022/08/30 03:12:11;;;;;;;3.47;1.17;;;13.60;99.90;;;;;;5033315;28;20014;-73
2022/08/30 03:14:37;;;;;;;2.28;1.25;;;13.60;99.90;;;;;;5034135;28;20045;-73
2022/08/30 03:17:06;;;;;;;2.08;1.17;;;13.50;99.90;;;;;;5033652;28;20022;-73
2022/08/30 03:19:35;;;;;;;2.55;1.08;;;13.50;99.90;;;;;;5033596;28;20065;-73
2022/08/30 03:22:02;;;;;;;3.00;1.10;;;13.50;99.90;;;;;;5033430;28;20100;-73
2022/08/30 03:24:27;;;;;;;1.40;1.15;;;13.40;99.90;;;;;;5033040;28;20381;-73
2022/08/30 03:26:54;;;;;;;3.45;1.40;;;13.40;99.90;;;;;;5033285;28;20100;-73
2022/08/30 03:29:19;;;;;;;3.60;1.30;;;13.40;99.90;;;;;;5033112;28;20512;-73
2022/08/30 03:31:45;;;;;;;2.50;1.17;;;13.30;99.90;;;;;;5033344;28;20038;-73
2022/08/30 03:34:11;;;;;;;3.38;1.52;;;13.30;99.90;;;;;;5033155;28;20025;-73
2022/08/30 03:36:37;;;;;;;3.55;1.30;;;13.30;99.90;;;;;;5033089;28;20422;-73
2022/08/30 09:52:34;;;;;;;3.10;1.33;;;23.60;72.60;;;;;;5068619;28;20444;-74
2022/08/30 09:55:16;;;;;;;3.10;1.33;;;24.00;74.30;;;;;;5068188;28;20090;-74
2022/08/30 09:58:00;;;;;;;3.35;1.10;;;24.60;70.00;;;;;;5068194;28;20551;-75
2022/08/30 10:00:30;;;;;;;3.72;1.10;;;24.80;67.40;;;;;;5068573;28;20516;-76
2022/08/30 10:03:02;;;;;;;3.97;1.00;;;24.70;68.80;;;;;;5068411;28;20036;-75
2022/08/30 10:05:54;;;;;;;6.75;1.13;;;25.20;65.60;;;;;;5068620;28;20114;-75
2022/08/30 10:08:46;;;;;;;4.80;1.45;;;26.10;63.80;;;;;;5065265;28;20044;-75
2022/08/30 10:11:18;;;;;;;4.55;1.08;;;27.10;60.70;;;;;;5048213;28;20077;-75
2022/08/30 10:14:08;;;;;;;4.95;1.30;;;28.40;56.40;;;;;;5048712;28;20002;-75
2022/08/30 10:17:03;;;;;;;5.43;1.08;;;29.80;55.60;;;;;;5048197;28;20071;-76
2022/08/30 10:20:07;;;;;;;7.57;1.35;;;31.60;46.10;;;;;;5038616;28;20029;-75
2022/08/30 10:23:00;;;;;;;8.15;1.02;;;30.70;46.00;;;;;;5035770;28;20045;-75
2022/08/30 10:25:33;;;;;;;3.25;1.10;;;30.40;48.60;;;;;;5047587;28;20079;-75
2022/08/30 10:28:14;;;;;;;2.20;0.90;;;31.20;46.90;;;;;;5066065;28;20107;-75
2022/08/30 10:30:43;;;;;;;;;;;31.30;45.80;;;;;;5068332;28;20016;-75
2022/08/30 10:33:35;;;;;;;4.85;1.02;;;30.20;47.10;;;;;;5063699;28;19909;-75
2022/08/30 10:36:05;;;;;;;3.25;0.90;;;29.60;46.40;;;;;;5047197;28;20105;-75
2022/08/30 10:38:34;;;;;;;2.55;1.05;;;29.10;48.70;;;;;;5048068;28;20032;-75
2022/08/30 10:41:22;;;;;;;2.55;0.98;;;29.70;50.00;;;;;;5047904;28;20478;-76
2022/08/30 10:44:15;;;;;;;4.57;1.10;;;30.00;49.10;;;;;;5047577;28;20434;-76
2022/08/30 10:47:17;;;;;;;4.70;1.20;;;31.20;46.60;;;;;;5047411;28;20029;-75
2022/08/30 10:49:45;;;;;;;3.30;0.93;;;32.20;42.40;;;;;;5046999;28;20079;-75
2022/08/30 10:52:11;;;;;;;2.95;0.88;;;32.20;41.40;;;;;;5047561;28;20061;-76
2022/08/30 10:54:45;;;;;;;4.28;1.27;;;32.10;43.40;;;;;;5047347;28;20063;-76
2022/08/30 10:57:10;;;;;;;3.83;1.10;;;31.10;42.50;;;;;;5051288;28;20056;-77
2022/08/30 10:59:44;;;;;;;5.72;1.20;;;31.80;42.80;;;;;;5051222;28;20094;-75
2022/08/30 11:02:12;;;;;;;3.17;1.02;;;32.70;41.20;;;;;;5052166;28;20040;-75
2022/08/30 11:05:01;;;;;;;6.60;1.35;;;33.80;38.40;;;;;;5037875;28;20024;-74
2022/08/30 11:07:45;;;;;;;4.05;0.90;;;34.50;37.70;;;;;;5049754;28;20109;-74
2022/08/30 11:10:22;;;;;;;3.47;1.30;;;34.90;37.50;;;;;;5046692;28;20371;-77
2022/08/30 11:12:51;;;;;;;4.28;1.30;;;34.30;37.30;;;;;;5052473;28;20054;-75
2022/08/30 11:15:20;;;;;;;3.15;1.30;;;33.10;39.70;;;;;;5063082;28;20445;-74
2022/08/30 11:18:03;;;;;;;3.17;1.20;;;31.70;41.60;;;;;;5068203;28;20028;-74
2022/08/30 11:20:52;;;;;;;6.47;1.30;;;31.00;42.30;;;;;;5041354;28;20073;-74
2022/08/30 11:23:17;;;;;;;6.00;1.42;;;29.60;44.50;;;;;;5071214;28;20032;-74
2022/08/30 11:26:08;;;;;;;4.50;1.38;;;29.80;45.70;;;;;;5059022;28;20472;-74
2022/08/30 11:28:36;;;;;;;1.67;0.80;;;29.30;46.40;;;;;;5042363;28;20024;-74
2022/08/30 11:31:06;;;;;;;3.67;1.10;;;30.60;46.20;;;;;;5065365;28;20338;-74
2022/08/30 11:33:54;;;;;;;2.28;1.00;;;30.90;43.70;;;;;;5065595;28;20050;-74
2022/08/30 11:36:29;;;;;;;7.10;1.40;;;32.00;44.10;;;;;;5056819;28;20021;-75
2022/08/30 11:38:54;;;;;;;2.55;1.30;;;33.20;43.80;;;;;;5060699;28;20029;-75
2022/08/30 11:41:31;;;;;;;2.78;1.30;;;32.60;41.00;;;;;;5055090;28;20032;-74
2022/08/30 11:44:12;;;;;;;8.65;1.33;;;32.30;41.60;;;;;;5056939;28;20143;-75
2022/08/30 11:46:42;;;;;;;10.02;1.02;;;32.90;40.50;;;;;;5043488;28;20017;-75
2022/08/30 11:49:13;;;;;;;8.68;1.15;;;34.30;37.40;;;;;;5063884;28;20025;-75
2022/08/30 11:51:54;;;;;;;11.45;1.10;;;34.50;38.00;;;;;;5064356;28;20091;-75
2022/08/30 11:54:42;;;;;;;1.75;0.82;;;35.40;34.70;;;;;;5069196;28;20469;-75
2022/08/30 11:57:40;;;;;;;2.58;1.05;;;35.50;34.40;;;;;;5049430;28;20027;-74
2022/08/30 12:00:07;;;;;;;4.88;1.05;;;35.30;32.70;;;;;;5048143;28;20029;-74
2022/08/30 12:02:49;;;;;;;2.83;1.17;;;35.50;32.50;;;;;;5044706;28;20041;-74
2022/08/30 12:05:39;;;;;;;2.85;1.10;;;35.90;33.20;;;;;;5038927;28;20059;-73
2022/08/30 12:08:09;;;;;;;4.28;0.90;;;37.60;31.30;;;;;;5038022;28;20025;-74
2022/08/30 12:10:44;;;;;;;3.03;1.10;;;38.40;30.10;;;;;;5037286;28;20035;-73
2022/08/30 12:13:33;;;;;;;2.78;0.95;;;38.50;29.80;;;;;;5040845;28;20408;-74
2022/08/30 12:16:19;;;;;;;2.65;1.02;;;37.40;29.30;;;;;;5027550;28;20116;-73
2022/08/30 12:18:47;;;;;;;3.35;0.90;;;35.30;32.50;;;;;;5058844;28;20500;-73
2022/08/30 12:21:29;;;;;;;2.90;0.90;;;34.90;33.30;;;;;;5067677;28;20036;-73
2022/08/30 12:24:21;;;;;;;4.10;0.90;;;34.10;33.40;;;;;;5068369;28;20031;-74
2022/08/30 12:26:50;;;;;;;2.53;0.90;;;36.10;32.80;;;;;;5069018;28;20055;-74
2022/08/30 12:29:20;;;;;;;4.80;1.02;;;36.50;30.60;;;;;;5067435;28;20056;-75
2022/08/30 12:32:07;;;;;;;1.38;0.88;;;36.60;31.70;;;;;;5069104;28;20512;-73
2022/08/30 12:34:53;;;;;;;1.92;0.85;;;36.30;30.00;;;;;;5046146;28;20088;-73
2022/08/30 12:37:23;;;;;;;2.30;1.10;;;34.30;31.70;;;;;;5033582;28;20076;-73
2022/08/30 12:40:04;;;;;;;2.53;0.88;;;34.20;33.60;;;;;;5030878;28;20017;-73
2022/08/30 12:42:34;;;;;;;2.17;1.00;;;34.40;33.00;;;;;;5032480;28;20690;-73
2022/08/30 12:45:04;;;;;;;1.88;1.05;;;36.40;31.50;;;;;;5047075;28;20024;-74
2022/08/30 12:47:57;;;;;;;4.37;0.80;;;35.20;29.60;;;;;;5043519;28;20059;-73
2022/08/30 12:50:29;;;;;;;3.80;1.30;;;33.20;33.30;;;;;;5042187;28;20083;-73
2022/08/30 12:53:08;;;;;;;3.03;0.95;;;31.70;34.90;;;;;;5042191;28;20017;-73
2022/08/30 12:55:49;;;;;;;3.83;1.13;;;30.10;38.10;;;;;;5034277;28;20028;-73
2022/08/30 12:58:15;;;;;;;2.97;1.00;;;29.20;39.60;;;;;;5032042;28;20030;-73
2022/08/30 13:00:43;;;;;;;2.85;1.25;;;28.40;39.50;;;;;;5045974;28;20079;-73
2022/08/30 13:03:31;;;;;;;1.42;0.90;;;27.80;42.70;;;;;;5051805;28;20025;-73
2022/08/30 13:05:57;;;;;;;6.03;1.45;;;27.70;41.30;;;;;;5051483;28;20024;-73
2022/08/30 13:08:35;;;;;;;4.90;1.17;;;27.30;42.50;;;;;;5048801;28;20028;-73
2022/08/30 13:11:09;;;;;;;3.80;1.05;;;27.20;45.40;;;;;;5031596;28;20470;-74
2022/08/30 13:16:23;;;;;;;2.47;1.08;;;27.20;45.40;;;;;;5009052;28;20076;-74
2022/08/30 13:18:55;;;;;;;3.58;1.48;;;26.40;43.00;;;;;;5010424;28;20064;-73
2022/08/30 13:21:22;;;;;;;;;;;26.40;45.10;;;;;;5011085;28;20096;-73
2022/08/30 13:23:49;;;;;;;3.97;1.27;;;26.20;43.70;;;;;;5006393;28;19910;-73
2022/08/30 13:26:16;;;;;;;3.45;1.25;;;25.80;44.90;;;;;;4991866;28;20026;-73
2022/08/30 13:28:54;;;;;;;1.65;1.23;;;25.80;44.80;;;;;;4992046;28;20463;-74
2022/08/30 13:31:20;;;;;;;4.05;1.70;;;26.70;47.30;;;;;;4991800;28;20061;-73
2022/08/30 13:33:46;;;;;;;65.30;11.82;;;28.80;42.50;;;;;;4992012;28;20426;-73
2022/08/30 13:36:15;;;;;;;4.20;1.42;;;28.90;40.10;;;;;;4992303;28;20100;-73
2022/08/30 13:38:41;;;;;;;3.45;1.20;;;28.70;40.90;;;;;;4992197;28;20022;-73
2022/08/30 13:41:08;;;;;;;2.20;1.08;;;28.30;44.00;;;;;;4991818;28;20031;-73
2022/08/30 13:43:34;;;;;;;6.07;1.65;;;28.30;45.90;;;;;;4991810;28;20408;-73
2022/08/30 13:46:00;;;;;;;4.90;1.33;;;28.40;39.80;;;;;;4973375;28;20034;-73
2022/08/30 13:48:25;;;;;;;2.92;1.27;;;28.70;39.50;;;;;;4972716;28;20529;-74
2022/08/30 13:50:52;;;;;;;6.38;2.00;;;28.20;41.70;;;;;;4971405;28;20031;-73
2022/08/30 13:53:18;;;;;;;6.70;1.40;;;27.70;40.50;;;;;;4972413;28;20050;-75
2022/08/30 13:55:44;;;;;;;7.57;2.45;;;27.90;41.20;;;;;;4972721;28;20476;-75
2022/08/30 13:58:19;;;;;;;5.85;1.90;;;29.30;39.20;;;;;;4972546;28;20031;-76
2022/08/30 14:00:45;;;;;;;6.90;1.08;;;32.50;34.40;;;;;;4971945;28;20468;-75
2022/08/30 14:03:12;;;;;;;3.13;0.80;;;35.30;30.60;;;;;;4981380;28;20106;-75
2022/08/30 14:05:39;;;;;;;2.33;0.88;;;34.20;28.70;;;;;;4980657;28;20514;-76
2022/08/30 14:08:07;;;;;;;3.67;0.90;;;33.30;32.00;;;;;;4972682;28;20562;-76
2022/08/30 14:10:34;;;;;;;2.65;0.95;;;34.60;30.70;;;;;;4987184;28;20133;-76
2022/08/30 14:13:00;;;;;;;1.83;0.85;;;36.10;29.80;;;;;;4985557;28;20434;-76
2022/08/30 14:15:26;;;;;;;2.53;1.00;;;36.90;28.40;;;;;;5019728;23;20568;-73
2022/08/30 14:17:52;;;;;;;2.22;1.05;;;37.90;27.70;;;;;;4995614;28;20391;-74
2022/08/30 14:20:18;;;;;;;2.97;0.85;;;37.60;27.00;;;;;;4971835;28;20019;-74
2022/08/30 14:22:44;;;;;;;3.78;1.05;;;35.20;29.00;;;;;;4972659;28;20046;-74
2022/08/30 14:25:10;;;;;;;3.05;1.00;;;34.00;30.00;;;;;;4971830;28;20026;-74
2022/08/30 14:27:35;;;;;;;1.38;0.77;;;33.10;33.40;;;;;;4970433;28;20038;-74
2022/08/30 14:30:01;;;;;;;2.42;1.20;;;32.40;34.60;;;;;;4970324;28;20061;-74
2022/08/30 14:32:27;;;;;;;2.90;0.80;;;31.60;35.50;;;;;;4970022;28;20030;-74
2022/08/30 14:34:52;;;;;;;1.48;0.82;;;30.40;37.30;;;;;;4970200;28;20030;-74
2022/08/30 14:37:18;;;;;;;3.47;1.20;;;30.50;39.10;;;;;;4973377;28;20041;-74
2022/08/30 14:39:44;;;;;;;1.42;0.90;;;31.20;36.50;;;;;;4993787;28;20046;-73
2022/08/30 14:42:11;;;;;;;8.85;1.45;;;30.30;35.60;;;;;;4993045;28;20505;-74
2022/08/30 14:44:37;;;;;;;3.83;1.40;;;29.80;37.70;;;;;;4994241;28;20421;-74
2022/08/30 14:47:03;;;;;;;4.95;1.17;;;29.90;38.40;;;;;;4994647;28;20471;-74
2022/08/30 14:49:29;;;;;;;4.15;1.00;;;29.80;37.20;;;;;;4995002;28;20053;-74
2022/08/30 14:51:55;;;;;;;4.88;0.98;;;30.60;38.70;;;;;;4994332;28;20371;-74
2022/08/30 14:54:24;;;;;;;3.45;0.90;;;32.00;33.70;;;;;;4994963;28;20026;-74
2022/08/30 14:56:50;;;;;;;1.92;0.90;;;33.50;31.80;;;;;;4994811;28;20068;-74
2022/08/30 14:59:17;;;;;;;3.95;1.00;;;32.80;31.00;;;;;;4994878;28;20026;-74
2022/08/30 15:01:43;;;;;;;2.67;1.00;;;33.50;30.60;;;;;;4994734;28;20030;-74
2022/08/30 15:04:10;;;;;;;3.10;0.70;;;35.60;30.30;;;;;;4994821;28;20165;-74
2022/08/30 15:06:37;;;;;;;9.25;0.77;;;36.80;29.60;;;;;;4994910;28;20026;-74
2022/08/30 15:09:05;;;;;;;0.95;0.60;;;38.10;27.70;;;;;;4993827;28;20462;-74
2022/08/30 15:11:32;;;;;;;3.97;1.02;;;38.70;26.60;;;;;;4994637;28;20027;-74
2022/08/30 15:13:57;;;;;;;2.42;0.77;;;39.50;24.70;;;;;;4994696;28;20022;-74
2022/08/30 15:16:27;;;;;;;3.15;0.80;;;38.80;25.30;;;;;;4994512;28;20502;-74
2022/08/30 15:18:53;;;;;;;1.30;0.60;;;39.10;24.40;;;;;;4993246;28;20384;-74
2022/08/30 15:21:22;;;;;;;1.23;0.77;;;39.00;25.20;;;;;;4994063;28;20513;-74
2022/08/30 15:23:48;;;;;;;2.42;1.00;;;39.10;24.60;;;;;;4994136;28;20057;-74
2022/08/30 15:26:14;;;;;;;2.00;0.80;;;37.50;24.70;;;;;;4994292;28;20755;-74
2022/08/30 15:28:40;;;;;;;1.25;0.70;;;36.20;26.00;;;;;;4994590;28;20109;-74
2022/08/30 15:31:05;;;;;;;1.58;0.57;;;34.60;27.70;;;;;;4994288;28;20383;-74
2022/08/30 15:33:31;;;;;;;2.28;0.80;;;34.00;26.90;;;;;;4994509;28;20454;-74
2022/08/30 15:36:01;;;;;;;3.15;1.00;;;35.30;28.10;;;;;;4994359;28;20519;-74
2022/08/30 15:38:27;;;;;;;2.38;0.80;;;36.80;27.70;;;;;;4994308;28;20057;-74
2022/08/30 15:40:55;;;;;;;3.60;0.88;;;36.50;26.90;;;;;;4993748;28;20415;-74
2022/08/30 15:43:20;;;;;;;1.92;0.77;;;36.90;26.90;;;;;;4993953;28;20089;-74
2022/08/30 15:45:46;;;;;;;1.65;0.80;;;35.00;27.70;;;;;;4993853;28;20023;-74
2022/08/30 15:48:11;;;;;;;2.60;1.02;;;34.30;29.10;;;;;;4994149;28;20105;-74
2022/08/30 15:50:37;;;;;;;1.38;0.70;;;34.10;28.90;;;;;;4993930;28;20081;-74
2022/08/30 15:53:05;;;;;;;4.88;0.95;;;35.00;28.10;;;;;;4993716;28;20026;-74
2022/08/30 15:55:31;;;;;;;2.90;1.25;;;34.40;28.40;;;;;;4993445;28;20068;-74
2022/08/30 15:57:57;;;;;;;1.88;0.68;;;34.40;29.10;;;;;;4993884;28;20105;-74
2022/08/30 16:00:22;;;;;;;2.63;0.88;;;33.60;29.20;;;;;;4992439;28;20023;-74
2022/08/30 16:02:49;;;;;;;2.13;0.70;;;34.10;29.50;;;;;;4994112;28;20038;-74
2022/08/30 16:05:16;;;;;;;1.33;0.55;;;33.40;29.20;;;;;;4993815;28;20022;-74
2022/08/30 16:07:45;;;;;;;3.88;0.70;;;31.80;30.90;;;;;;4993465;28;20030;-74
2022/08/30 16:10:12;;;;;;;1.90;0.70;;;30.40;33.10;;;;;;4992577;28;20018;-74
2022/08/30 16:12:38;;;;;;;3.58;0.98;;;29.80;33.70;;;;;;4993467;28;20022;-74
2022/08/30 16:15:04;;;;;;;2.40;0.85;;;29.70;35.30;;;;;;5018397;23;20046;-75
2022/08/30 16:17:29;;;;;;;1.92;0.70;;;29.60;35.10;;;;;;5012983;28;20033;-75
2022/08/30 16:19:55;;;;;;;3.22;0.90;;;29.30;35.50;;;;;;5013214;28;20037;-76
2022/08/30 16:22:22;;;;;;;1.60;0.65;;;28.90;35.10;;;;;;5012128;28;20037;-75
2022/08/30 16:24:48;;;;;;;4.30;0.90;;;28.30;36.30;;;;;;5011943;28;20032;-74
2022/08/30 16:27:14;;;;;;;7.68;1.50;;;27.70;38.00;;;;;;5012568;28;20666;-74
2022/08/30 16:29:39;;;;;;;2.25;1.00;;;27.60;39.90;;;;;;5012807;28;20080;-75
2022/08/30 16:32:05;;;;;;;2.22;1.05;;;27.50;37.90;;;;;;5012579;28;20385;-75
2022/08/30 16:34:31;;;;;;;2.28;0.85;;;27.50;38.80;;;;;;5012736;28;20435;-74
2022/08/30 16:36:56;;;;;;;1.98;0.93;;;27.10;38.40;;;;;;5012740;28;20029;-74
2022/08/30 16:39:22;;;;;;;4.07;0.80;;;26.60;39.50;;;;;;5012659;28;20121;-75
2022/08/30 16:41:48;;;;;;;2.75;0.85;;;26.40;39.80;;;;;;5012706;28;20117;-74
2022/08/30 16:44:13;;;;;;;1.92;0.80;;;26.20;41.60;;;;;;5012327;28;20026;-74
2022/08/30 16:46:40;;;;;;;1.10;0.90;;;26.00;41.40;;;;;;5012406;28;20057;-74
2022/08/30 16:49:06;;;;;;;2.30;0.70;;;26.10;41.10;;;;;;5011631;28;20026;-76
2022/08/30 16:51:33;;;;;;;1.27;0.77;;;26.10;40.70;;;;;;5007989;28;20041;-76
2022/08/30 16:54:02;;;;;;;1.10;0.45;;;25.70;39.90;;;;;;5009957;28;20029;-78
2022/08/30 16:56:30;;;;;;;0.93;0.70;;;25.60;42.70;;;;;;5009047;28;20025;-76
2022/08/30 16:58:58;;;;;;;1.48;0.73;;;25.50;44.10;;;;;;5009341;28;20025;-76
2022/08/30 17:01:24;;;;;;;1.90;0.75;;;25.10;43.10;;;;;;5008486;28;20049;-75
2022/08/30 17:03:50;;;;;;;1.02;0.63;;;24.80;43.50;;;;;;4992275;28;20035;-75
2022/08/30 17:06:16;;;;;;;1.25;0.77;;;24.70;43.10;;;;;;4988143;28;20037;-79
2022/08/30 17:08:42;;;;;;;3.58;0.82;;;24.60;44.80;;;;;;4987158;28;20525;-75
2022/08/30 17:11:12;;;;;;;7.38;1.65;;;24.40;44.20;;;;;;5008625;28;20034;-75
2022/08/30 17:13:38;;;;;;;2.40;0.73;;;24.30;46.60;;;;;;5009141;28;20083;-75
2022/08/30 17:16:05;;;;;;;2.40;0.73;;;24.30;46.10;;;;;;5008886;28;20042;-75
2022/08/30 17:18:33;;;;;;;1.02;0.55;;;24.10;44.80;;;;;;5009261;28;20494;-75
2022/08/30 17:20:58;;;;;;;1.52;0.75;;;24.00;46.00;;;;;;5008916;28;20386;-76
2022/08/30 17:23:24;;;;;;;1.52;0.75;;;23.90;46.30;;;;;;4997792;28;20065;-75
2022/08/30 17:25:50;;;;;;;1.77;1.00;;;23.50;47.80;;;;;;4988579;28;20034;-75
2022/08/30 17:28:15;;;;;;;2.58;0.80;;;23.50;47.00;;;;;;4989228;28;20031;-75
2022/08/30 17:30:41;;;;;;;1.85;0.80;;;23.40;48.70;;;;;;4988619;28;20088;-75
2022/08/30 17:33:07;;;;;;;3.50;0.77;;;23.40;50.30;;;;;;4988004;28;20034;-75
2022/08/30 17:35:33;;;;;;;2.95;0.98;;;23.20;49.00;;;;;;4988180;28;20023;-74
2022/08/30 17:37:59;;;;;;;2.50;0.90;;;23.00;49.30;;;;;;4988423;28;20026;-75
2022/08/30 17:40:24;;;;;;;2.58;0.85;;;22.80;50.50;;;;;;4988771;28;20030;-75
2022/08/30 17:42:50;;;;;;;2.42;1.10;;;22.70;50.90;;;;;;4987516;28;20042;-74
2022/08/30 17:45:16;;;;;;;1.60;0.70;;;22.50;50.70;;;;;;4989249;28;20570;-75
2022/08/30 17:47:42;;;;;;;3.25;0.75;;;22.50;51.50;;;;;;4988434;28;20038;-75
2022/08/30 17:50:09;;;;;;;0.90;0.70;;;22.40;52.90;;;;;;4988746;28;20031;-74
2022/08/30 17:52:34;;;;;;;1.73;0.90;;;22.10;52.90;;;;;;4988594;28;20031;-74
2022/08/30 17:55:01;;;;;;;1.30;0.70;;;22.10;54.90;;;;;;4988340;28;20208;-75
2022/08/30 17:57:27;;;;;;;2.95;0.80;;;22.00;54.90;;;;;;4987542;28;20037;-75
2022/08/30 17:59:53;;;;;;;0.80;0.65;;;21.90;53.30;;;;;;4988665;28;20439;-74
2022/08/30 18:02:18;;;;;;;2.60;0.90;;;21.80;53.00;;;;;;4991525;28;20125;-74
2022/08/30 18:04:44;;;;;;;3.80;0.80;;;21.70;56.70;;;;;;4996784;28;20036;-74
2022/08/30 18:07:12;;;;;;;4.10;1.10;;;21.60;55.90;;;;;;5008344;28;20083;-74
2022/08/30 18:09:38;;;;;;;2.72;0.85;;;21.40;55.60;;;;;;5009658;28;20056;-74
2022/08/30 18:12:04;;;;;;;2.25;0.88;;;21.20;56.20;;;;;;5011942;28;20041;-74
2022/08/30 18:14:30;;;;;;;2.65;1.00;;;21.10;56.30;;;;;;5015141;28;20026;-74
2022/08/30 18:16:56;;;;;;;1.20;0.90;;;20.90;57.50;;;;;;5014170;28;20026;-74
2022/08/30 18:19:26;;;;;;;1.42;0.85;;;20.80;59.30;;;;;;5015267;28;20525;-74
2022/08/30 18:21:53;;;;;;;2.42;0.88;;;20.70;59.60;;;;;;5013655;28;20038;-74
2022/08/30 18:24:20;;;;;;;6.28;0.75;;;20.40;61.40;;;;;;5013396;28;20049;-74
2022/08/30 18:26:46;;;;;;;2.83;1.00;;;20.30;61.30;;;;;;5015450;28;20029;-75
2022/08/30 18:29:12;;;;;;;1.77;0.70;;;20.20;61.50;;;;;;5014994;28;20022;-74
2022/08/30 18:31:38;;;;;;;2.58;0.70;;;20.10;62.90;;;;;;5015243;28;20045;-74
2022/08/30 18:34:05;;;;;;;1.13;0.82;;;20.00;64.40;;;;;;5015006;28;20506;-74
2022/08/30 18:36:31;;;;;;;3.50;0.85;;;19.90;64.20;;;;;;5014773;28;20390;-74
2022/08/30 18:38:57;;;;;;;1.17;0.70;;;19.70;65.30;;;;;;5004030;28;20026;-74
2022/08/30 18:41:23;;;;;;;3.20;0.88;;;19.60;67.30;;;;;;4995096;28;20034;-74
2022/08/30 18:43:52;;;;;;;1.67;1.00;;;19.50;68.20;;;;;;4994993;28;20031;-74
2022/08/30 18:46:18;;;;;;;2.40;0.70;;;19.50;69.20;;;;;;4995261;28;20027;-74
2022/08/30 18:48:45;;;;;;;2.00;0.70;;;19.20;74.00;;;;;;4994983;28;20034;-74
2022/08/30 18:51:13;;;;;;;1.67;0.88;;;19.10;72.40;;;;;;4995030;28;20503;-74
2022/08/30 18:53:39;;;;;;;2.97;0.70;;;19.00;72.80;;;;;;4993980;28;20022;-74
2022/08/30 18:56:05;;;;;;;2.67;0.50;;;18.90;75.20;;;;;;4994300;28;20067;-74
2022/08/30 18:58:31;;;;;;;1.80;0.70;;;18.70;78.00;;;;;;4992922;28;20049;-74
2022/08/30 19:00:57;;;;;;;1.85;1.00;;;18.60;77.00;;;;;;4994950;28;20426;-74
2022/08/30 19:03:22;;;;;;;2.83;0.70;;;18.50;78.40;;;;;;4993370;28;20101;-75
2022/08/30 19:05:48;;;;;;;1.15;0.70;;;18.50;77.40;;;;;;4992973;28;20088;-74
2022/08/30 19:08:14;;;;;;;1.27;0.70;;;18.40;81.10;;;;;;4993555;28;20031;-74
2022/08/30 19:10:40;;;;;;;2.47;0.65;;;18.40;77.40;;;;;;4993855;28;20109;-74
2022/08/30 19:13:05;;;;;;;2.58;0.85;;;18.40;78.60;;;;;;4994712;28;20475;-74
2022/08/30 19:15:35;;;;;;;2.70;0.70;;;18.20;79.50;;;;;;4994359;28;20506;-74
2022/08/30 19:18:02;;;;;;;1.15;0.60;;;18.10;80.80;;;;;;4994520;28;20088;-74